Time;durP1;ratioP1;P1;durP2;ratioP2;P2;SDS_P1;SDS_P2;PMS_P1;PMS_P2;Temp;Humidity;BMP_temperature;BMP_pressure;BME280_temperature;BME280_humidity;BME280_pressure;Samples;Min_cycle;Max_cycle;Signal;HPM_P1;HPM_P2
2021/08/22 00:02:06;;;;;;;;;11.67;11.67;;;;;16.21;92.02;99875.16;2389091;31;2786642;-62
2021/08/22 00:04:34;;;;;;;;;13.00;11.00;;;;;16.19;92.08;99867.16;2404070;31;2788729;-61
2021/08/22 00:07:02;;;;;;;;;13.00;12.00;;;;;16.19;92.12;99872.59;2388781;31;2789750;-61
2021/08/22 00:09:30;;;;;;;;;14.00;13.00;;;;;15.88;93.44;99857.13;2387810;31;3519971;-61
2021/08/22 00:12:00;;;;;;;;;13.20;13.00;;;;;15.74;93.97;99866.31;2411139;31;2794990;-61
2021/08/22 00:14:28;;;;;;;;;13.00;11.67;;;;;15.96;93.58;99871.75;2388699;39;2798112;-61
2021/08/22 00:16:56;;;;;;;;;11.00;11.00;;;;;15.85;93.97;99863.63;2400341;31;3517902;-61
2021/08/22 00:19:25;;;;;;;;;15.33;12.33;;;;;15.77;94.89;99866.06;2400117;31;3527256;-61
2021/08/22 00:21:53;;;;;;;;;17.00;15.00;;;;;15.44;95.68;99858.78;2400361;31;3554307;-61
2021/08/22 00:24:20;;;;;;;;;13.00;13.00;;;;;15.59;95.39;99874.66;2406899;31;2792911;-61
2021/08/22 00:26:49;;;;;;;;;12.33;12.00;;;;;15.50;95.06;99867.25;2388418;31;3539776;-62
2021/08/22 00:29:17;;;;;;;;;13.67;12.00;;;;;15.93;91.97;99879.25;2400329;31;2797214;-61
2021/08/22 00:31:46;;;;;;;;;11.40;10.80;;;;;16.04;92.77;99870.28;2411764;31;2788729;-61
2021/08/22 00:34:15;;;;;;;;;12.00;12.00;;;;;16.01;92.56;99869.53;2388500;31;3524104;-61
2021/08/22 00:36:43;;;;;;;;;12.67;12.67;;;;;15.89;93.84;99856.97;2399206;39;2794978;-61
2021/08/22 00:39:12;;;;;;;;;15.67;14.33;;;;;15.69;94.11;99863.13;2399441;39;2804403;-61
2021/08/22 00:41:42;;;;;;;;;12.33;12.00;;;;;15.48;94.95;99855.72;2398913;31;2787764;-61
2021/08/22 00:44:09;;;;;;;;;13.00;13.00;;;;;16.04;92.79;99856.72;2404276;31;2794079;-61
2021/08/22 00:46:38;;;;;;;;;12.00;12.00;;;;;16.09;92.43;99857.19;2387756;31;3515845;-61
2021/08/22 00:49:07;;;;;;;;;14.00;13.00;;;;;16.13;92.62;99855.97;2404397;31;2803375;-61
2021/08/22 00:51:36;;;;;;;;;12.33;12.00;;;;;16.27;92.34;99861.09;2389341;39;3525174;-61
2021/08/22 00:54:05;;;;;;;;;13.00;13.00;;;;;16.30;91.87;99858.16;2401044;31;3535856;-61
2021/08/22 00:56:33;;;;;;;;;12.33;11.00;;;;;16.17;92.66;99857.44;2400234;39;3525150;-61
2021/08/22 00:59:13;;;;;;;;;14.00;14.00;;;;;16.07;93.35;99851.91;2398942;39;3518992;-61
2021/08/22 01:01:48;;;;;;;;;12.00;11.50;;;;;16.45;90.75;99859.56;2398984;31;2784582;-61
2021/08/22 01:04:20;;;;;;;;;14.00;13.00;;;;;16.55;90.35;99872.38;2401861;31;2796400;-62
2021/08/22 01:07:23;;;;;;;;;12.00;11.00;;;;;16.38;91.10;99863.78;2387135;31;2803369;-61
2021/08/22 01:09:53;;;;;;;;;12.00;12.00;;;;;16.57;90.54;99859.56;2399059;31;2778344;-60
2021/08/22 01:12:30;;;;;;;;;12.00;12.00;;;;;16.30;91.61;99860.88;2403363;31;2800214;-61
2021/08/22 01:15:06;;;;;;;;;11.00;11.00;;;;;16.07;92.64;99853.75;2390672;39;2787683;-61
2021/08/22 01:17:42;;;;;;;;;12.67;12.67;;;;;15.61;95.30;99861.00;2386962;31;3523071;-61
2021/08/22 01:20:22;;;;;;;;;15.67;14.00;;;;;15.76;95.92;99864.38;2399288;31;3526239;-61
2021/08/22 01:22:52;;;;;;;;;13.00;12.00;;;;;15.32;96.61;99855.19;2403375;31;2780826;-62
2021/08/22 01:25:22;;;;;;;;;13.33;12.00;;;;;15.15;96.75;99851.97;2386185;46;3517929;-61
2021/08/22 01:27:52;;;;;;;;;13.00;12.00;;;;;15.38;96.61;99852.03;2400024;31;3516959;-61
2021/08/22 01:30:20;;;;;;;;;13.00;12.00;;;;;15.37;96.14;99855.69;2404890;31;2783556;-61
2021/08/22 01:32:51;;;;;;;;;13.00;13.00;;;;;15.46;94.42;99854.13;2386912;31;3519941;-61
2021/08/22 01:35:23;;;;;;;;;12.50;12.50;;;;;15.47;94.80;99856.69;2403392;31;2796067;-61
2021/08/22 01:37:54;;;;;;;;;11.40;11.40;;;;;15.63;93.41;99853.63;2399523;39;2791873;-61
2021/08/22 01:40:23;;;;;;;;;13.00;12.00;;;;;15.65;93.56;99856.22;2388794;31;2798115;-61
2021/08/22 01:42:52;;;;;;;;;13.67;13.67;;;;;15.32;95.16;99863.31;2400769;31;2798198;-61
2021/08/22 01:45:22;;;;;;;;;14.67;13.00;;;;;15.72;94.46;99862.91;2400365;31;3530402;-61
2021/08/22 01:47:50;;;;;;;;;13.00;13.00;;;;;16.06;93.32;99862.84;2403441;31;2804397;-61
2021/08/22 01:50:22;;;;;;;;;14.33;13.00;;;;;16.08;93.59;99858.19;2387926;31;3519947;-61
2021/08/22 01:53:07;;;;;;;;;14.33;13.67;;;;;15.94;94.34;99854.75;2400077;31;3523133;-61
2021/08/22 01:55:34;;;;;;;;;14.00;14.00;;;;;16.01;93.61;99853.28;2403407;31;2796024;-61
2021/08/22 01:58:02;;;;;;;;;13.50;13.50;;;;;16.00;93.32;99854.25;2391007;31;2801295;-61
2021/08/22 02:00:30;;;;;;;;;12.67;12.00;;;;;15.98;94.25;99860.78;2389982;31;3532508;-61
2021/08/22 02:02:59;;;;;;;;;8.00;8.00;;;;;16.25;92.15;99860.38;2400499;39;2748109;-61
2021/08/22 02:05:29;;;;;;;;;15.00;14.00;;;;;15.90;93.22;99864.09;2392077;39;2812792;-61
2021/08/22 02:07:58;;;;;;;;;13.00;13.00;;;;;15.96;94.30;99860.91;2391375;31;2802380;-61
2021/08/22 02:10:32;;;;;;;;;14.00;14.00;;;;;15.87;94.06;99858.94;2388164;31;3523074;-61
2021/08/22 02:13:03;;;;;;;;;13.67;13.67;;;;;15.86;94.92;99857.22;2400127;31;3533519;-61
2021/08/22 02:15:41;;;;;;;;;19.00;12.50;;;;;16.21;92.31;99859.75;2388604;31;2490351;-61
2021/08/22 02:18:15;;;;;;;;;17.00;14.00;;;;;16.05;92.37;99859.28;2386607;39;3543942;-61
2021/08/22 02:20:47;;;;;;;;;16.00;15.00;;;;;15.98;94.17;99853.53;2388288;31;3532448;-61
2021/08/22 02:23:17;;;;;;;;;15.67;15.00;;;;;16.12;93.37;99855.09;2385902;31;3541835;-61
2021/08/22 02:25:45;;;;;;;;;14.50;13.50;;;;;16.37;92.35;99853.94;2401941;39;2800309;-60
2021/08/22 02:28:13;;;;;;;;;15.50;14.00;;;;;16.24;93.87;99858.63;2391816;31;2808559;-61
2021/08/22 02:30:41;;;;;;;;;14.33;14.33;;;;;16.57;92.83;99856.84;2386943;31;3529486;-61
2021/08/22 02:33:10;;;;;;;;;16.50;16.50;;;;;16.66;91.56;99856.06;2386278;39;2823150;-61
2021/08/22 02:35:38;;;;;;;;;15.67;15.33;;;;;16.74;91.29;99855.41;2386779;39;3547028;-61
2021/08/22 02:38:06;;;;;;;;;16.00;16.00;;;;;16.68;93.86;99857.66;2391107;31;2821015;-61
2021/08/22 02:40:34;;;;;;;;;15.00;13.33;;;;;16.71;91.22;99867.38;2387675;31;3543931;-61
2021/08/22 02:43:02;;;;;;;;;15.00;14.50;;;;;16.79;91.18;99862.19;2388074;31;2496075;-61
2021/08/22 02:45:32;;;;;;;;;17.00;14.00;;;;;16.85;90.90;99875.25;2387893;31;3534675;-61
2021/08/22 02:48:01;;;;;;;;;15.50;15.50;;;;;16.83;90.58;99866.38;2387683;31;2492696;-61
2021/08/22 02:50:29;;;;;;;;;18.00;15.00;;;;;16.85;91.05;99858.97;2388240;31;2483544;-61
2021/08/22 02:52:57;;;;;;;;;17.50;14.50;;;;;16.99;89.88;99865.06;2389182;31;2489770;-61
2021/08/22 02:55:25;;;;;;;;;15.33;15.33;;;;;16.76;91.61;99865.13;2386687;39;3530373;-61
2021/08/22 02:57:54;;;;;;;;;16.33;14.67;;;;;16.88;90.55;99869.56;2386434;31;3545995;-61
2021/08/22 03:00:23;;;;;;;;;15.33;15.33;;;;;16.75;92.04;99863.44;2387284;31;3548203;-61
2021/08/22 03:02:51;;;;;;;;;17.00;14.00;;;;;16.66;92.88;99873.19;2387021;31;2809597;-61
2021/08/22 03:05:20;;;;;;;;;15.00;13.00;;;;;16.76;92.81;99861.56;2390016;31;2791877;-62
2021/08/22 03:07:47;;;;;;;;;14.50;14.50;;;;;16.79;92.09;99867.63;2389375;31;2485620;-62
2021/08/22 03:10:16;;;;;;;;;16.67;15.33;;;;;16.81;91.77;99860.22;2386741;39;3541823;-61
2021/08/22 03:12:44;;;;;;;;;12.00;12.00;;;;;16.66;93.42;99864.19;2386732;39;3533498;-62
2021/08/22 03:15:13;;;;;;;;;16.00;16.00;;;;;16.60;94.13;99859.28;2387063;31;3554347;-61
2021/08/22 03:17:42;;;;;;;;;15.67;15.33;;;;;16.95;91.28;99863.59;2386312;46;3537696;-62
2021/08/22 03:20:10;;;;;;;;;16.67;16.67;;;;;16.62;92.99;99862.75;2391133;31;3573124;-62
2021/08/22 03:22:44;;;;;;;;;17.33;16.00;;;;;16.79;91.91;99862.19;2386415;39;3556390;-61
2021/08/22 03:25:13;;;;;;;;;16.00;15.00;;;;;16.56;93.37;99861.41;2388560;31;2489844;-62
2021/08/22 03:27:41;;;;;;;;;16.50;15.00;;;;;16.62;93.78;99851.91;2389199;31;2490252;-61
2021/08/22 03:30:11;;;;;;;;;17.67;14.33;;;;;16.44;94.93;99848.88;2386955;31;3548093;-62
2021/08/22 03:32:39;;;;;;;;;15.00;15.00;;;;;16.51;93.56;99854.63;2387286;39;3544417;-61
2021/08/22 03:35:07;;;;;;;;;15.00;13.00;;;;;16.41;95.22;99854.56;2386861;39;2793965;-61
2021/08/22 03:37:36;;;;;;;;;16.50;16.50;;;;;16.51;93.86;99860.94;2398232;39;2823106;-61
2021/08/22 03:40:05;;;;;;;;;15.33;14.33;;;;;16.61;93.98;99856.47;2386610;39;3534568;-62
2021/08/22 03:42:34;;;;;;;;;16.33;15.67;;;;;16.77;93.34;99856.06;2386773;39;3545422;-61
2021/08/22 03:45:02;;;;;;;;;18.00;16.00;;;;;16.71;92.87;99855.69;2400478;31;3556438;-61
2021/08/22 03:47:31;;;;;;;;;16.00;16.00;;;;;16.50;93.79;99859.19;2387058;31;2825229;-61
2021/08/22 03:49:59;;;;;;;;;17.50;17.50;;;;;16.49;94.37;99867.47;2385818;46;2833514;-61
2021/08/22 03:52:27;;;;;;;;;17.00;17.00;;;;;16.67;94.74;99855.94;2388333;31;2493937;-61
2021/08/22 03:54:55;;;;;;;;;21.33;18.33;;;;;16.80;93.27;99861.22;2388016;31;3561614;-62
2021/08/22 03:57:23;;;;;;;;;17.00;17.00;;;;;16.93;92.94;99857.44;2388472;31;2485620;-62
2021/08/22 03:59:50;;;;;;;;;19.00;15.00;;;;;16.68;93.34;99860.34;2389051;39;2493981;-61
2021/08/22 04:02:21;;;;;;;;;16.00;16.00;;;;;16.81;93.01;99860.22;2387654;31;3553388;-61
2021/08/22 04:04:51;;;;;;;;;17.00;17.00;;;;;16.60;94.26;99860.16;2386531;31;2831479;-62
2021/08/22 04:07:19;;;;;;;;;16.00;16.00;;;;;16.64;95.10;99858.03;2386793;31;2825197;-61
2021/08/22 04:09:47;;;;;;;;;21.50;18.00;;;;;17.00;92.43;99866.78;2387650;46;2487699;-61
2021/08/22 04:12:15;;;;;;;;;17.00;16.00;;;;;16.84;93.10;99862.66;2386496;31;2826211;-62
2021/08/22 04:14:44;;;;;;;;;18.50;18.50;;;;;16.78;93.18;99857.78;2387422;31;2828398;-62
2021/08/22 04:17:11;;;;;;;;;21.00;17.00;;;;;17.00;92.07;99870.34;2386576;39;2661686;-61
2021/08/22 04:19:41;;;;;;;;;17.00;17.00;;;;;16.96;92.07;99868.06;2387330;39;2489783;-62
2021/08/22 04:22:10;;;;;;;;;16.00;16.00;;;;;16.89;92.79;99871.28;2386334;47;2825185;-62
2021/08/22 04:24:39;;;;;;;;;16.00;16.00;;;;;16.92;92.63;99869.28;2386668;39;2829363;-61
2021/08/22 04:27:08;;;;;;;;;17.33;16.67;;;;;16.93;93.58;99871.00;2388415;46;2833558;-62
2021/08/22 04:29:40;;;;;;;;;18.50;17.00;;;;;16.93;94.14;99871.00;2398395;31;2823190;-61
2021/08/22 04:32:10;;;;;;;;;16.00;16.00;;;;;16.64;95.13;99871.59;2387308;31;2825197;-62
2021/08/22 04:34:39;;;;;;;;;18.50;15.00;;;;;16.68;96.19;99863.06;2386955;39;2821030;-62
2021/08/22 04:37:07;;;;;;;;;20.00;17.00;;;;;17.04;93.63;99868.25;2386661;47;2824255;-62
2021/08/22 04:39:36;;;;;;;;;22.50;19.00;;;;;17.25;92.13;99873.69;2386973;31;2829376;-62
2021/08/22 04:42:04;;;;;;;;;21.00;17.00;;;;;16.98;94.38;99875.06;2387479;31;2823099;-61
2021/08/22 04:44:33;;;;;;;;;22.00;19.00;;;;;16.91;94.26;99878.44;2387687;31;2832533;-62
2021/08/22 04:47:05;;;;;;;;;22.00;17.00;;;;;17.15;93.28;99884.47;2386065;39;2821121;-62
2021/08/22 04:49:33;;;;;;;;;21.50;20.00;;;;;17.28;91.45;99881.56;2387282;31;2830441;-62
2021/08/22 04:52:02;;;;;;;;;19.00;17.50;;;;;17.71;90.34;99875.09;2386288;47;2830441;-62
2021/08/22 04:54:31;;;;;;;;;23.00;22.00;;;;;18.04;89.32;99878.56;2387689;31;2841887;-62
2021/08/22 04:56:59;;;;;;;;;20.50;20.50;;;;;17.59;91.69;99877.03;2386627;47;2837731;-62
2021/08/22 04:59:28;;;;;;;;;18.00;18.00;;;;;17.38;93.25;99874.34;2390397;31;3562667;-63
2021/08/22 05:01:56;;;;;;;;;23.00;21.00;;;;;17.39;93.26;99870.63;2386126;31;2840794;-61
2021/08/22 05:04:25;;;;;;;;;22.50;22.50;;;;;17.45;92.01;99871.94;2385524;47;2839796;-62
2021/08/22 05:06:54;;;;;;;;;21.00;18.00;;;;;17.53;90.56;99874.84;2386790;39;2838803;-62
2021/08/22 05:09:23;;;;;;;;;25.00;22.00;;;;;17.47;91.92;99872.69;2387291;39;2846070;-60
2021/08/22 05:11:51;;;;;;;;;25.33;21.33;;;;;17.59;92.37;99874.31;2388789;31;3583545;-62
2021/08/22 05:14:22;;;;;;;;;23.00;21.00;;;;;17.70;91.68;99876.94;2386762;31;2835760;-62
2021/08/22 05:16:50;;;;;;;;;20.67;19.33;;;;;19.02;85.44;99880.47;2389186;31;3565789;-62
2021/08/22 05:19:18;;;;;;;;;18.00;17.00;;;;;19.36;83.84;99888.16;2399635;31;2491866;-62
2021/08/22 05:21:46;;;;;;;;;19.00;18.00;;;;;19.55;82.56;99892.72;2387531;31;2833542;-62
2021/08/22 05:24:17;;;;;;;;;17.50;17.50;;;;;19.88;81.05;99889.50;2386538;39;2829393;-63
2021/08/22 05:26:45;;;;;;;;;17.50;17.50;;;;;19.74;81.21;99892.66;2387172;31;2826219;-63
2021/08/22 05:29:14;;;;;;;;;27.00;21.00;;;;;19.66;81.33;99889.81;2385324;47;2852332;-63
2021/08/22 05:31:42;;;;;;;;;21.00;21.00;;;;;19.42;81.98;99898.47;2386057;47;2837725;-62
2021/08/22 05:34:11;;;;;;;;;19.33;19.00;;;;;18.30;86.25;99896.09;2389745;31;3563753;-62
2021/08/22 05:36:42;;;;;;;;;20.00;19.00;;;;;18.10;88.55;99889.72;2386608;39;2839169;-62
2021/08/22 05:39:10;;;;;;;;;22.00;22.00;;;;;18.34;88.25;99892.09;2399059;31;2833539;-62
2021/08/22 05:41:39;;;;;;;;;20.00;18.00;;;;;18.80;85.92;99892.47;2387768;31;2827280;-61
2021/08/22 05:44:07;;;;;;;;;20.00;19.50;;;;;18.76;86.42;99894.63;2387655;39;2837681;-60
2021/08/22 05:46:36;;;;;;;;;22.00;19.00;;;;;19.04;85.07;99895.63;2388833;31;2843950;-61
2021/08/22 05:49:05;;;;;;;;;19.00;19.00;;;;;19.64;82.98;99905.44;2399406;31;2812686;-61
2021/08/22 05:51:33;;;;;;;;;21.50;20.00;;;;;19.49;82.59;99908.63;2387025;31;2817910;-62
2021/08/22 05:54:02;;;;;;;;;21.50;21.00;;;;;19.22;84.27;99903.06;2388569;31;2835649;-62
2021/08/22 05:56:30;;;;;;;;;22.00;20.00;;;;;19.05;85.42;99905.50;2387106;39;2829364;-59
2021/08/22 05:58:59;;;;;;;;;23.67;23.00;;;;;19.03;84.83;99899.34;2389083;39;3581397;-62
2021/08/22 06:01:28;;;;;;;;;28.00;26.67;;;;;19.04;85.77;99901.09;2386711;46;3598080;-63
2021/08/22 06:03:57;;;;;;;;;22.50;19.00;;;;;19.01;85.42;99901.38;2398842;31;2839757;-63
2021/08/22 06:06:25;;;;;;;;;19.67;19.33;;;;;18.48;88.42;99903.56;2391566;31;3561642;-64
2021/08/22 06:08:55;;;;;;;;;22.67;21.33;;;;;18.94;87.60;99904.81;2401895;31;2841913;-59
2021/08/22 06:11:24;;;;;;;;;22.00;20.50;;;;;19.26;84.74;99905.34;2401158;31;2836687;-61
2021/08/22 06:13:52;;;;;;;;;22.00;18.00;;;;;19.04;85.61;99906.53;2387215;39;2835634;-61
2021/08/22 06:16:21;;;;;;;;;21.67;21.33;;;;;18.98;85.25;99904.34;2391182;31;3583492;-60
2021/08/22 06:18:48;;;;;;;;;19.00;17.00;;;;;18.83;85.71;99893.06;2390918;31;2493985;-60
2021/08/22 06:21:17;;;;;;;;;20.50;19.50;;;;;19.08;85.76;99902.50;2388631;31;2840944;-61
2021/08/22 06:23:45;;;;;;;;;21.00;21.00;;;;;19.24;84.48;99901.06;2388856;31;2833633;-61
2021/08/22 06:26:13;;;;;;;;;22.67;22.00;;;;;19.26;83.93;99904.50;2390731;31;3594887;-57
2021/08/22 06:28:44;;;;;;;;;17.75;17.25;;;;;19.32;83.23;99903.06;2386229;31;3562708;-61
2021/08/22 06:31:13;;;;;;;;;20.50;19.00;;;;;19.70;81.92;99900.28;2387947;31;2842905;-59
2021/08/22 06:33:40;;;;;;;;;17.50;17.50;;;;;19.77;81.15;99899.69;2389334;39;2493980;-61
2021/08/22 06:36:09;;;;;;;;;23.00;21.00;;;;;20.08;80.53;99911.19;2390342;39;3582454;-60
2021/08/22 06:38:38;;;;;;;;;17.00;17.00;;;;;19.86;79.32;99896.94;2393077;31;3572021;-61
2021/08/22 06:41:06;;;;;;;;;17.67;17.67;;;;;20.59;77.15;99904.38;2392724;31;3566803;-62
2021/08/22 06:43:34;;;;;;;;;21.00;18.33;;;;;22.08;72.57;99903.53;2392860;31;3566835;-62
2021/08/22 06:46:03;;;;;;;;;15.00;15.00;;;;;24.10;65.74;99906.88;2390070;31;2814789;-62
2021/08/22 06:48:31;;;;;;;;;18.33;18.33;;;;;23.74;62.67;99912.78;2392189;31;3565837;-62
2021/08/22 06:51:02;;;;;;;;;20.00;19.00;;;;;23.66;64.24;99910.03;2390451;31;2831412;-62
2021/08/22 06:53:30;;;;;;;;;17.67;16.67;;;;;25.13;61.77;99909.44;2392008;31;3557418;-62
2021/08/22 06:55:58;;;;;;;;;16.67;16.00;;;;;26.67;56.36;99912.69;2392776;31;3560573;-61
2021/08/22 06:58:28;;;;;;;;;21.00;19.00;;;;;24.79;60.32;99909.00;2390194;31;2835645;-62
2021/08/22 07:00:56;;;;;;;;;16.00;16.00;;;;;24.93;61.87;99908.19;2402348;31;2827280;-61
2021/08/22 07:03:25;;;;;;;;;15.50;15.50;;;;;27.22;54.39;99921.38;2389964;31;2816831;-62
2021/08/22 07:05:54;;;;;;;;;13.00;13.00;;;;;27.86;52.06;99917.72;2393690;31;3531427;-62
2021/08/22 07:08:22;;;;;;;;;17.00;17.00;;;;;25.24;59.64;99905.44;2405124;31;3562681;-61
